createdAt,value
2022-09-17T00:01:08.147Z,17.63
2022-09-17T00:03:35.555Z,16.98
2022-09-17T00:06:06.891Z,18.15
2022-09-17T00:08:35.425Z,16.58
2022-09-17T00:11:09.898Z,17.10
2022-09-17T00:13:37.151Z,17.55
2022-09-17T00:16:04.135Z,16.73
2022-09-17T00:18:30.840Z,17.48
2022-09-17T00:20:57.558Z,16.65
2022-09-17T00:23:24.540Z,16.23
2022-09-17T00:25:51.314Z,17.08
2022-09-17T00:28:18.431Z,17.50
2022-09-17T00:30:46.581Z,17.38
2022-09-17T00:33:18.089Z,16.70
2022-09-17T00:35:45.162Z,17.80
2022-09-17T00:38:12.027Z,17.45
2022-09-17T00:40:39.136Z,17.08
2022-09-17T00:43:12.359Z,16.80
2022-09-17T00:45:40.038Z,17.40
2022-09-17T00:48:07.632Z,17.63
2022-09-17T00:50:41.461Z,18.02
2022-09-17T00:53:13.699Z,17.15
2022-09-17T00:55:44.436Z,16.88
2022-09-17T00:58:13.247Z,17.90
2022-09-17T01:00:40.492Z,17.30
2022-09-17T01:03:07.592Z,17.65
2022-09-17T01:06:11.889Z,17.00
2022-09-17T01:08:48.944Z,18.27
2022-09-17T01:11:39.930Z,18.25
2022-09-17T01:14:25.447Z,17.65
2022-09-17T01:17:01.124Z,17.63
2022-09-17T01:19:55.815Z,17.17
2022-09-17T01:22:46.151Z,18.83
2022-09-17T01:25:12.800Z,17.10
2022-09-17T01:28:20.768Z,17.33
2022-09-17T01:31:17.602Z,17.05
2022-09-17T01:34:01.707Z,16.30
2022-09-17T01:37:01.263Z,16.05
2022-09-17T01:39:58.150Z,16.65
2022-09-17T01:42:38.863Z,17.30
2022-09-17T01:45:23.617Z,17.13
2022-09-17T01:47:55.068Z,17.05
2022-09-17T01:50:33.556Z,17.55
2022-09-17T01:53:02.972Z,18.33
2022-09-17T01:55:33.776Z,16.42
2022-09-17T01:58:20.680Z,16.80
2022-09-17T02:00:55.615Z,16.98
2022-09-17T02:03:30.549Z,17.52
2022-09-17T02:06:05.691Z,17.00
2022-09-17T02:08:58.093Z,16.73
2022-09-17T02:11:25.116Z,16.42
2022-09-17T02:14:00.955Z,16.48
2022-09-17T02:16:31.095Z,15.90
2022-09-17T02:19:06.947Z,16.13
2022-09-17T02:21:47.388Z,16.60
2022-09-17T02:24:36.823Z,15.43
2022-09-17T02:27:17.710Z,15.30
2022-09-17T02:29:45.174Z,16.00
2022-09-17T02:32:12.989Z,15.43
2022-09-17T02:34:40.557Z,17.05
2022-09-17T02:37:08.057Z,16.15
2022-09-17T02:39:34.943Z,15.32
2022-09-17T02:42:10.455Z,16.25
2022-09-17T02:44:56.538Z,16.45
2022-09-17T02:47:38.399Z,15.70
2022-09-17T02:50:23.528Z,16.35
2022-09-17T02:53:23.762Z,16.17
2022-09-17T02:56:13.646Z,16.05
2022-09-17T02:58:59.424Z,17.42
2022-09-17T03:01:35.840Z,16.33
2022-09-17T03:04:05.314Z,15.73
2022-09-17T03:06:32.353Z,16.25
2022-09-17T03:08:59.095Z,17.00
2022-09-17T03:11:25.833Z,15.88
2022-09-17T03:13:52.704Z,17.00
2022-09-17T03:16:19.438Z,17.35
2022-09-17T03:18:46.289Z,17.48
2022-09-17T03:21:13.003Z,17.63
2022-09-17T03:23:39.937Z,16.95
2022-09-17T03:26:06.928Z,16.42
2022-09-17T03:28:33.965Z,16.67
2022-09-17T03:31:00.767Z,18.90
2022-09-17T03:33:27.592Z,16.30
2022-09-17T03:35:54.323Z,17.52
2022-09-17T03:38:21.237Z,16.88
2022-09-17T03:41:07.189Z,16.35
2022-09-17T03:43:34.667Z,16.02
2022-09-17T03:46:01.759Z,16.27
2022-09-17T03:48:29.668Z,15.50
2022-09-17T03:50:57.023Z,15.57
2022-09-17T03:53:23.986Z,14.98
2022-09-17T03:55:50.784Z,15.40
2022-09-17T03:58:17.497Z,15.50
2022-09-17T04:00:44.544Z,15.55
2022-09-17T04:03:11.293Z,16.38
2022-09-17T04:05:38.174Z,15.65
2022-09-17T04:08:05.026Z,15.27
2022-09-17T04:10:31.743Z,15.35
2022-09-17T04:12:58.454Z,14.70
2022-09-17T04:15:25.377Z,14.48
2022-09-17T04:17:56.602Z,14.35
2022-09-17T04:20:27.374Z,14.13
2022-09-17T04:22:54.477Z,13.85
2022-09-17T04:25:21.273Z,14.63
2022-09-17T04:27:48.092Z,13.55
2022-09-17T04:30:15.024Z,13.35
2022-09-17T04:32:43.063Z,14.60
2022-09-17T04:35:10.079Z,13.68
2022-09-17T04:37:37.263Z,12.07
2022-09-17T04:40:07.878Z,12.32
2022-09-17T04:42:35.072Z,12.00
2022-09-17T04:45:01.872Z,13.13
2022-09-17T04:47:28.550Z,11.65
2022-09-17T04:49:55.246Z,11.00
2022-09-17T04:52:21.890Z,9.98
2022-09-17T04:54:48.663Z,10.43
2022-09-17T04:57:15.448Z,11.60
2022-09-17T04:59:42.532Z,10.13
2022-09-17T05:02:09.281Z,10.15
2022-09-17T05:04:36.075Z,10.25
2022-09-17T05:07:02.918Z,10.23
2022-09-17T05:09:29.626Z,10.68
2022-09-17T05:11:56.344Z,10.02
2022-09-17T05:14:23.228Z,10.63
2022-09-17T05:16:49.934Z,9.60
2022-09-17T05:19:17.466Z,9.27
2022-09-17T05:21:44.297Z,9.27
2022-09-17T05:24:11.039Z,9.32
2022-09-17T05:26:37.826Z,9.18
2022-09-17T05:29:04.861Z,8.82
2022-09-17T05:31:31.785Z,8.68
2022-09-17T05:33:59.040Z,8.20
2022-09-17T05:36:25.771Z,8.65
2022-09-17T05:38:52.464Z,7.50
2022-09-17T05:41:19.255Z,8.20
2022-09-17T05:43:46.130Z,7.97
2022-09-17T05:46:13.004Z,7.35
2022-09-17T05:48:39.720Z,7.45
2022-09-17T05:51:06.431Z,7.30
2022-09-17T05:53:33.228Z,7.78
2022-09-17T05:56:00.241Z,7.38
2022-09-17T05:58:27.305Z,7.20
2022-09-17T06:00:54.038Z,7.15
2022-09-17T06:03:22.710Z,6.50
2022-09-17T06:06:01.158Z,6.78
2022-09-17T06:08:29.044Z,6.80
2022-09-17T06:10:59.088Z,6.50
2022-09-17T06:13:29.025Z,6.00
2022-09-17T06:15:55.821Z,6.35
2022-09-17T06:18:22.713Z,6.95
2022-09-17T06:20:57.182Z,7.72
2022-09-17T06:23:24.849Z,6.85
2022-09-17T06:26:01.550Z,6.38
2022-09-17T06:28:28.678Z,6.68
2022-09-17T06:30:57.294Z,6.68
2022-09-17T06:33:24.285Z,6.97
2022-09-17T06:36:00.813Z,7.15
2022-09-17T06:38:28.901Z,7.15
2022-09-17T06:40:55.988Z,7.38
2022-09-17T06:43:23.421Z,7.38
2022-09-17T06:45:54.360Z,6.07
2022-09-17T06:48:21.977Z,6.55
2022-09-17T06:50:49.430Z,6.40
2022-09-17T06:53:16.339Z,6.10
2022-09-17T06:55:43.723Z,6.15
2022-09-17T06:58:10.413Z,5.47
2022-09-17T07:00:37.127Z,5.68
2022-09-17T07:03:04.010Z,6.10
2022-09-17T07:05:32.852Z,5.65
2022-09-17T07:08:03.249Z,5.88
2022-09-17T07:10:31.017Z,5.85
2022-09-17T07:12:59.049Z,5.65
2022-09-17T07:15:25.944Z,5.80
2022-09-17T07:17:52.969Z,5.47
2022-09-17T07:20:19.995Z,5.75
2022-09-17T07:22:54.839Z,5.72
2022-09-17T07:25:21.559Z,5.50
2022-09-17T07:27:48.321Z,5.47
2022-09-17T07:30:15.533Z,5.70
2022-09-17T07:32:42.363Z,5.80
2022-09-17T07:35:09.302Z,5.50
2022-09-17T07:37:36.001Z,5.68
2022-09-17T07:40:03.203Z,5.68
2022-09-17T07:42:29.965Z,5.38
2022-09-17T07:45:01.836Z,6.18
2022-09-17T07:47:29.163Z,5.38
2022-09-17T07:49:56.064Z,5.78
2022-09-17T07:52:22.803Z,5.20
2022-09-17T07:54:49.492Z,5.53
2022-09-17T07:57:16.403Z,5.63
2022-09-17T07:59:43.133Z,5.38
2022-09-17T08:02:13.808Z,4.78
2022-09-17T08:04:44.026Z,4.88
2022-09-17T08:07:14.133Z,5.03
2022-09-17T08:09:41.005Z,4.95
2022-09-17T08:12:08.056Z,5.10
2022-09-17T08:14:34.862Z,5.18
2022-09-17T08:17:01.599Z,4.70
2022-09-17T08:19:31.198Z,5.20
2022-09-17T08:21:57.939Z,4.85
2022-09-17T08:24:24.811Z,4.45
2022-09-17T08:26:51.935Z,5.13
2022-09-17T08:29:19.046Z,4.80
2022-09-17T08:31:45.881Z,4.35
2022-09-17T08:34:13.422Z,4.68
2022-09-17T08:36:40.251Z,3.95
2022-09-17T08:39:07.171Z,4.50
2022-09-17T08:41:39.898Z,3.97
2022-09-17T08:46:52.318Z,4.20
2022-09-17T08:49:34.105Z,3.92
2022-09-17T08:52:30.098Z,3.13
2022-09-17T08:55:38.184Z,3.13
2022-09-17T08:58:19.979Z,2.53
2022-09-17T09:00:54.054Z,2.50
2022-09-17T09:03:26.672Z,2.90
2022-09-17T09:08:32.808Z,2.78
2022-09-17T09:11:02.890Z,2.60
2022-09-17T09:13:43.088Z,2.80
2022-09-17T09:16:19.564Z,3.05
2022-09-17T09:18:51.451Z,2.90
2022-09-17T09:21:28.374Z,3.10
2022-09-17T09:23:58.627Z,3.05
2022-09-17T09:26:40.483Z,3.08
2022-09-17T09:29:14.567Z,3.33
2022-09-17T09:31:59.745Z,3.17
2022-09-17T09:34:28.872Z,2.97
2022-09-17T09:37:12.722Z,3.22
2022-09-17T09:39:45.702Z,3.10
2022-09-17T09:42:34.728Z,3.92
2022-09-17T09:45:39.890Z,3.85
2022-09-17T09:48:23.168Z,3.45
2022-09-17T09:51:08.736Z,3.80
2022-09-17T09:53:44.461Z,4.10
2022-09-17T09:56:29.549Z,4.22
2022-09-17T09:58:56.285Z,3.45
2022-09-17T10:01:27.731Z,3.90
2022-09-17T10:03:58.242Z,3.65
2022-09-17T10:06:29.228Z,3.28
2022-09-17T10:08:55.950Z,3.40
2022-09-17T10:11:28.609Z,3.70
2022-09-17T10:14:25.656Z,4.15
2022-09-17T10:17:15.769Z,4.72
2022-09-17T10:19:43.623Z,3.30
2022-09-17T10:22:26.097Z,3.88
2022-09-17T10:24:55.458Z,4.13
2022-09-17T10:27:24.492Z,3.42
2022-09-17T10:30:00.716Z,4.20
2022-09-17T10:32:27.438Z,4.72
2022-09-17T10:35:05.804Z,4.65
2022-09-17T10:37:55.002Z,4.85
2022-09-17T10:40:21.787Z,4.80
2022-09-17T10:42:50.750Z,5.70
2022-09-17T10:45:31.608Z,5.85
2022-09-17T10:48:00.215Z,6.03
2022-09-17T10:50:32.163Z,6.25
2022-09-17T10:53:06.096Z,7.07
2022-09-17T10:55:43.245Z,7.93
2022-09-17T10:58:51.486Z,8.60
2022-09-17T11:02:04.298Z,7.95
2022-09-17T11:05:08.205Z,7.57
2022-09-17T11:08:12.478Z,7.55
2022-09-17T11:10:43.434Z,7.70
2022-09-17T11:13:29.107Z,7.55
2022-09-17T11:16:17.679Z,6.40
2022-09-17T11:19:10.539Z,5.53
2022-09-17T11:22:10.142Z,6.22
2022-09-17T11:24:50.810Z,5.68
2022-09-17T11:27:37.720Z,6.25
2022-09-17T11:30:15.414Z,6.28
2022-09-17T11:33:13.318Z,5.90
2022-09-17T11:35:47.011Z,6.35
2022-09-17T11:38:22.778Z,6.20
2022-09-17T11:41:04.816Z,6.55
2022-09-17T11:43:43.210Z,7.03
2022-09-17T11:46:29.409Z,7.30
2022-09-17T11:49:12.703Z,7.53
2022-09-17T11:52:09.126Z,7.88
2022-09-17T11:54:51.171Z,7.85
2022-09-17T11:57:32.946Z,6.03
2022-09-17T12:00:14.246Z,7.60
2022-09-17T12:02:59.888Z,7.27
2022-09-17T12:05:50.122Z,7.68
2022-09-17T12:08:16.752Z,7.82
2022-09-17T12:11:14.705Z,7.30
2022-09-17T12:13:49.303Z,5.22
2022-09-17T12:16:19.166Z,5.38
2022-09-17T12:19:07.785Z,5.63
2022-09-17T12:21:45.732Z,4.90
2022-09-17T12:24:26.004Z,5.47
2022-09-17T12:27:14.118Z,5.40
2022-09-17T12:29:47.011Z,6.70
2022-09-17T12:32:41.593Z,6.25
2022-09-17T12:35:53.052Z,5.65
2022-09-17T12:38:35.372Z,6.32
2022-09-17T12:41:24.812Z,5.32
2022-09-17T12:44:22.503Z,4.97
2022-09-17T12:47:21.228Z,4.32
2022-09-17T12:49:55.748Z,4.10
2022-09-17T12:52:37.770Z,6.03
2022-09-17T12:55:19.737Z,4.47
2022-09-17T12:57:49.381Z,3.33
2022-09-17T13:00:17.062Z,3.40
2022-09-17T13:02:55.932Z,2.88
2022-09-17T13:05:25.620Z,3.17
2022-09-17T13:08:12.686Z,3.45
2022-09-17T13:11:10.421Z,4.00
2022-09-17T13:13:37.236Z,3.78
2022-09-17T13:16:16.916Z,4.38
2022-09-17T13:19:12.304Z,4.30
2022-09-17T13:21:51.571Z,4.32
2022-09-17T13:24:22.637Z,4.30
2022-09-17T13:26:49.464Z,4.10
2022-09-17T13:29:54.849Z,4.45
2022-09-17T13:32:49.329Z,3.80
2022-09-17T13:35:16.042Z,4.25
2022-09-17T13:37:45.296Z,4.45
2022-09-17T13:40:34.536Z,4.88
2022-09-17T13:43:04.055Z,4.50
2022-09-17T13:45:32.131Z,4.35
2022-09-17T13:48:02.372Z,4.00
2022-09-17T13:50:33.392Z,4.53
2022-09-17T13:53:07.348Z,4.35
2022-09-17T13:55:52.443Z,4.68
2022-09-17T13:58:19.062Z,4.72
2022-09-17T14:01:05.279Z,4.93
2022-09-17T14:03:34.182Z,4.82
2022-09-17T14:06:11.056Z,5.45
2022-09-17T14:08:43.857Z,5.60
2022-09-17T14:13:53.211Z,11.48
2022-09-17T14:16:35.874Z,7.45
2022-09-17T14:19:38.813Z,7.78
2022-09-17T14:22:05.862Z,7.07
2022-09-17T14:24:44.619Z,8.35
2022-09-17T14:27:14.382Z,7.72
2022-09-17T14:30:01.211Z,8.45
2022-09-17T14:32:34.292Z,8.63
2022-09-17T14:35:04.134Z,9.45
2022-09-17T14:37:33.352Z,9.77
2022-09-17T14:40:00.164Z,10.90
2022-09-17T14:42:35.814Z,10.82
2022-09-17T14:45:06.470Z,10.98
2022-09-17T14:47:33.250Z,11.88
2022-09-17T14:50:23.852Z,11.43
2022-09-17T14:52:54.678Z,12.20
2022-09-17T14:55:24.211Z,12.30
2022-09-17T14:57:54.179Z,12.65
2022-09-17T15:00:24.484Z,13.07
2022-09-17T15:02:59.731Z,13.50
2022-09-17T15:05:33.875Z,12.93
2022-09-17T15:08:11.406Z,14.00
2022-09-17T15:10:47.168Z,12.43
2022-09-17T15:13:27.182Z,13.10
2022-09-17T15:16:03.809Z,13.13
2022-09-17T15:18:55.072Z,15.05
2022-09-17T15:21:29.567Z,13.52
2022-09-17T15:24:07.346Z,14.32
2022-09-17T15:26:40.114Z,14.23
2022-09-17T15:31:36.769Z,14.70
2022-09-17T15:34:03.933Z,14.93
2022-09-17T15:36:31.821Z,15.73
2022-09-17T15:38:59.186Z,15.65
2022-09-17T15:41:36.126Z,16.30
2022-09-17T15:44:32.070Z,16.02
2022-09-17T15:47:39.184Z,16.83
2022-09-17T15:50:14.729Z,16.48
2022-09-17T15:52:42.348Z,17.73
2022-09-17T15:55:31.035Z,18.83
2022-09-17T15:57:59.661Z,19.60
2022-09-17T16:00:26.472Z,20.67
2022-09-17T16:02:54.338Z,21.83
2022-09-17T16:05:23.870Z,22.33
2022-09-17T16:07:51.226Z,23.88
2022-09-17T16:10:18.297Z,23.38
2022-09-17T16:12:45.385Z,24.20
2022-09-17T16:15:13.067Z,22.55
2022-09-17T16:17:44.813Z,22.95
2022-09-17T16:20:21.968Z,22.65
2022-09-17T16:22:49.104Z,22.55
2022-09-17T16:25:23.236Z,23.35
2022-09-17T16:28:28.564Z,24.35
2022-09-17T16:30:55.359Z,27.40
2022-09-17T16:33:22.239Z,29.77
2022-09-17T16:35:49.136Z,29.33
2022-09-17T16:38:15.977Z,26.98
2022-09-17T16:40:45.015Z,26.67
2022-09-17T16:43:11.791Z,26.20
2022-09-17T16:45:38.551Z,30.45
2022-09-17T16:48:06.753Z,31.27
2022-09-17T16:50:34.414Z,37.92
2022-09-17T16:53:04.895Z,72.22
2022-09-17T16:55:32.274Z,79.38
2022-09-17T16:57:59.164Z,74.80
2022-09-17T17:00:25.941Z,94.82
2022-09-17T17:02:57.508Z,44.20
2022-09-17T17:05:26.116Z,36.38
2022-09-17T17:07:55.274Z,44.15
2022-09-17T17:10:23.206Z,41.90
2022-09-17T17:12:50.076Z,57.60
2022-09-17T17:15:17.076Z,61.75
2022-09-17T17:17:43.865Z,39.17
2022-09-17T17:20:13.545Z,31.55
2022-09-17T17:22:44.038Z,38.88
2022-09-17T17:25:13.436Z,56.13
2022-09-17T17:27:40.835Z,71.57
2022-09-17T17:30:09.402Z,50.42
2022-09-17T17:32:37.181Z,49.20
2022-09-17T17:35:06.123Z,50.33
2022-09-17T17:37:32.878Z,46.78
2022-09-17T17:40:00.137Z,42.75
2022-09-17T17:42:26.981Z,38.95
2022-09-17T17:44:55.579Z,33.05
2022-09-17T17:47:22.235Z,30.85
2022-09-17T17:49:49.040Z,32.35
2022-09-17T17:52:15.715Z,38.92
2022-09-17T17:54:42.489Z,38.65
2022-09-17T17:57:10.440Z,35.67
2022-09-17T17:59:37.164Z,33.03
2022-09-17T18:02:04.201Z,34.67
2022-09-17T18:04:31.053Z,45.25
2022-09-17T18:06:57.765Z,41.70
2022-09-17T18:09:24.903Z,38.33
2022-09-17T18:11:51.553Z,37.42
2022-09-17T18:14:18.301Z,74.95
2022-09-17T18:16:44.994Z,50.60
2022-09-17T18:19:12.144Z,34.67
2022-09-17T18:21:38.976Z,41.45
2022-09-17T18:24:05.882Z,42.08
2022-09-17T18:26:32.727Z,46.53
2022-09-17T18:29:01.443Z,37.17
2022-09-17T18:31:33.224Z,36.10
2022-09-17T18:34:04.958Z,43.40
2022-09-17T18:36:34.733Z,51.78
2022-09-17T18:41:52.834Z,57.83
2022-09-17T18:44:21.841Z,58.28
2022-09-17T18:46:50.240Z,55.42
2022-09-17T18:49:17.516Z,58.30
2022-09-17T18:51:44.286Z,48.83
2022-09-17T18:54:12.787Z,37.97
2022-09-17T18:56:41.692Z,36.15
2022-09-17T18:59:09.784Z,34.05
2022-09-17T19:01:36.640Z,35.67
2022-09-17T19:04:03.900Z,34.33
2022-09-17T19:06:32.235Z,34.85
2022-09-17T19:09:01.234Z,34.25
2022-09-17T19:11:28.458Z,34.15
2022-09-17T19:13:55.547Z,32.35
2022-09-17T19:16:22.724Z,35.10
2022-09-17T19:18:49.717Z,41.17
2022-09-17T19:21:21.775Z,37.83
2022-09-17T19:23:50.625Z,34.83
2022-09-17T19:26:20.433Z,35.80
2022-09-17T19:28:48.049Z,37.42
2022-09-17T19:31:17.175Z,40.30
2022-09-17T19:33:44.784Z,40.38
2022-09-17T19:36:17.080Z,37.65
2022-09-17T19:38:44.594Z,37.17
2022-09-17T19:41:13.172Z,35.72
2022-09-17T19:43:40.668Z,37.13
2022-09-17T19:46:11.512Z,37.38
2022-09-17T19:48:43.740Z,37.13
2022-09-17T19:51:10.561Z,39.58
2022-09-17T19:53:37.310Z,37.05
2022-09-17T19:56:04.847Z,38.60
2022-09-17T19:58:31.498Z,37.17
2022-09-17T20:00:59.276Z,41.05
2022-09-17T20:03:26.757Z,40.55
2022-09-17T20:05:59.627Z,41.88
2022-09-17T20:08:26.624Z,40.65
2022-09-17T20:10:54.459Z,41.30
2022-09-17T20:13:21.920Z,38.83
2022-09-17T20:15:48.999Z,40.08
2022-09-17T20:18:18.661Z,39.95
2022-09-17T20:20:48.021Z,38.58
2022-09-17T20:23:14.800Z,39.38
2022-09-17T20:25:41.466Z,40.38
2022-09-17T20:28:08.387Z,40.10
2022-09-17T20:30:35.067Z,38.72
2022-09-17T20:33:01.799Z,36.83
2022-09-17T20:35:28.503Z,37.00
2022-09-17T20:38:51.552Z,37.40
2022-09-17T20:40:41.960Z,37.80
2022-09-17T20:43:08.696Z,39.70
2022-09-17T20:45:35.434Z,38.72
2022-09-17T20:48:02.447Z,36.50
2022-09-17T20:50:29.302Z,37.97
2022-09-17T20:52:56.463Z,40.45
2022-09-17T20:55:23.316Z,39.40
2022-09-17T20:57:53.619Z,40.47
2022-09-17T21:00:21.499Z,39.65
2022-09-17T21:02:56.396Z,39.58
2022-09-17T21:05:23.208Z,39.55
2022-09-17T21:07:49.943Z,39.13
2022-09-17T21:10:16.701Z,38.30
2022-09-17T21:12:43.368Z,39.83
2022-09-17T21:15:10.495Z,37.85
2022-09-17T21:17:40.674Z,41.50
2022-09-17T21:20:07.995Z,42.90
2022-09-17T21:22:34.733Z,40.22
2022-09-17T21:25:01.582Z,39.05
2022-09-17T21:27:31.581Z,39.33
2022-09-17T21:29:58.724Z,41.03
2022-09-17T21:32:25.489Z,39.28
2022-09-17T21:34:52.188Z,43.70
2022-09-17T21:37:19.036Z,44.03
2022-09-17T21:39:45.723Z,43.33
2022-09-17T21:42:12.420Z,40.35
2022-09-17T21:44:39.201Z,39.13
2022-09-17T21:47:09.165Z,40.05
2022-09-17T21:49:40.145Z,44.55
2022-09-17T21:52:06.818Z,41.42
2022-09-17T21:54:33.534Z,42.55
2022-09-17T21:57:00.201Z,40.40
2022-09-17T21:59:27.319Z,39.85
2022-09-17T22:01:54.050Z,40.55
2022-09-17T22:04:26.099Z,42.85
2022-09-17T22:06:53.406Z,39.83
2022-09-17T22:09:25.445Z,40.47
2022-09-17T22:11:53.389Z,41.92
2022-09-17T22:14:24.987Z,42.47
2022-09-17T22:16:54.529Z,39.75
2022-09-17T22:19:23.033Z,40.15
2022-09-17T22:21:52.421Z,41.50
2022-09-17T22:24:21.137Z,39.75
2022-09-17T22:26:55.754Z,40.55
2022-09-17T22:29:24.795Z,37.92
2022-09-17T22:31:51.621Z,39.30
2022-09-17T22:34:22.993Z,38.10
2022-09-17T22:36:50.049Z,34.45
2022-09-17T22:39:19.097Z,35.83
2022-09-17T22:41:46.312Z,35.40
2022-09-17T22:44:21.874Z,35.90
2022-09-17T22:46:51.345Z,34.33
2022-09-17T22:49:19.180Z,36.45
2022-09-17T22:51:47.218Z,33.30
2022-09-17T22:54:15.889Z,35.13
2022-09-17T22:56:43.940Z,37.08
2022-09-17T22:59:11.154Z,35.75
2022-09-17T23:01:39.750Z,35.35
2022-09-17T23:04:06.761Z,35.72
2022-09-17T23:06:36.538Z,34.58
2022-09-17T23:09:04.001Z,34.10
2022-09-17T23:11:33.970Z,35.72
2022-09-17T23:14:03.105Z,33.80
2022-09-17T23:16:39.762Z,33.30
2022-09-17T23:19:06.630Z,33.22
2022-09-17T23:21:33.495Z,33.40
2022-09-17T23:24:00.587Z,34.55
2022-09-17T23:26:27.726Z,33.70
2022-09-17T23:28:54.495Z,31.02
2022-09-17T23:31:26.901Z,30.98
2022-09-17T23:33:55.538Z,28.98
2022-09-17T23:36:28.271Z,29.75
2022-09-17T23:41:25.522Z,24.55
2022-09-17T23:43:54.675Z,27.58
2022-09-17T23:46:23.294Z,28.55
2022-09-17T23:48:51.659Z,26.52
2022-09-17T23:51:18.456Z,27.25
2022-09-17T23:53:45.881Z,24.48
2022-09-17T23:56:15.672Z,23.88
2022-09-17T23:58:42.432Z,22.63
